createdAt,value
2017-01-20T00:00:57.850Z,28.1
2017-01-20T00:01:56.376Z,28.1
2017-01-20T00:02:59.196Z,28.1
2017-01-20T00:03:57.847Z,28.1
2017-01-20T00:04:57.856Z,28.1
2017-01-20T00:05:57.871Z,28.1
2017-01-20T00:06:57.945Z,28.1
2017-01-20T00:07:57.989Z,28.1
2017-01-20T00:08:56.421Z,28.1
2017-01-20T00:09:58.137Z,28.1
2017-01-20T00:10:58.225Z,28.1
2017-01-20T00:11:59.603Z,28.1
2017-01-20T00:12:56.833Z,28.1
2017-01-20T00:13:56.827Z,28.1
2017-01-20T00:14:56.886Z,28.1
2017-01-20T00:15:58.615Z,28.1
2017-01-20T00:16:57.221Z,28.1
2017-01-20T00:17:57.119Z,28.1
2017-01-20T00:18:59.838Z,28.1
2017-01-20T00:19:57.050Z,28.1
2017-01-20T00:20:57.111Z,28.1
2017-01-20T00:21:58.746Z,28.1
2017-01-20T00:22:57.270Z,28
2017-01-20T00:23:57.280Z,28.1
2017-01-20T00:24:57.316Z,28.1
2017-01-20T00:25:58.918Z,28.1
2017-01-20T00:26:57.299Z,28.1
2017-01-20T00:27:58.935Z,28.1
2017-01-20T00:28:58.987Z,28.1
2017-01-20T00:29:59.150Z,28.1
2017-01-20T00:30:57.550Z,28.1
2017-01-20T00:31:57.677Z,28.1
2017-01-20T00:32:59.278Z,28.1
2017-01-20T00:33:59.364Z,28.1
2017-01-20T00:34:59.429Z,28.1
2017-01-20T00:35:59.439Z,28.1
2017-01-20T00:36:59.556Z,28.1
2017-01-20T00:37:59.544Z,28.1
2017-01-20T00:39:00.310Z,28.1
2017-01-20T00:39:59.663Z,28.1
2017-01-20T00:40:59.669Z,28.1
2017-01-20T00:41:58.139Z,28.1
2017-01-20T00:42:58.139Z,28.1
2017-01-20T00:43:58.246Z,28.1
2017-01-20T00:44:59.796Z,28
2017-01-20T00:45:59.956Z,28.1
2017-01-20T00:46:59.837Z,28.1
2017-01-20T00:47:58.466Z,28.1
2017-01-20T00:48:58.505Z,28.1
2017-01-20T00:49:59.139Z,28
2017-01-20T00:50:58.681Z,28.1
2017-01-20T00:52:00.297Z,28.1
2017-01-20T00:53:00.266Z,28.1
2017-01-20T00:53:58.740Z,28.1
2017-01-20T00:55:00.299Z,28
2017-01-20T00:56:00.650Z,28.1
2017-01-20T00:57:00.439Z,28
2017-01-20T00:58:00.532Z,28.1
2017-01-20T00:58:59.030Z,28.1
2017-01-20T01:00:00.702Z,28.1
2017-01-20T01:01:00.654Z,28
2017-01-20T01:02:00.736Z,28
2017-01-20T01:02:59.215Z,28.1
2017-01-20T01:03:59.359Z,28.1
2017-01-20T01:04:59.607Z,28.1
2017-01-20T01:06:01.000Z,28
2017-01-20T01:07:01.104Z,28
2017-01-20T01:08:01.190Z,28
2017-01-20T01:08:59.769Z,28
2017-01-20T01:09:59.670Z,28
2017-01-20T01:10:59.799Z,28
2017-01-20T01:12:01.816Z,28
2017-01-20T01:12:59.738Z,28
2017-01-20T01:14:01.304Z,28
2017-01-20T01:15:01.368Z,28
2017-01-20T01:16:01.474Z,28
2017-01-20T01:17:01.493Z,28
2017-01-20T01:18:00.184Z,28
2017-01-20T01:19:01.651Z,28
2017-01-20T01:20:01.703Z,28
2017-01-20T01:21:01.763Z,28
2017-01-20T01:22:00.222Z,28
2017-01-20T01:23:00.350Z,28
2017-01-20T01:24:01.192Z,28
2017-01-20T01:25:02.045Z,28
2017-01-20T01:26:00.426Z,28
2017-01-20T01:27:00.583Z,28
2017-01-20T01:28:02.199Z,28
2017-01-20T01:29:02.935Z,28
2017-01-20T01:30:02.238Z,28
2017-01-20T01:31:02.981Z,28
2017-01-20T01:32:00.836Z,28
2017-01-20T01:33:00.829Z,28
2017-01-20T01:34:02.384Z,28
2017-01-20T01:35:02.489Z,28
2017-01-20T01:36:00.976Z,28
2017-01-20T01:37:00.955Z,28
2017-01-20T01:38:02.629Z,28
2017-01-20T01:39:01.268Z,28
2017-01-20T01:40:02.704Z,28
2017-01-20T01:41:02.982Z,28
2017-01-20T01:42:01.281Z,28
2017-01-20T01:43:01.358Z,28
2017-01-20T01:44:01.386Z,28
2017-01-20T01:45:01.415Z,28
2017-01-20T01:46:02.947Z,28
2017-01-20T01:47:02.902Z,28
2017-01-20T01:48:03.084Z,28
2017-01-20T01:49:01.502Z,28
2017-01-20T01:50:01.779Z,28
2017-01-20T01:51:03.276Z,28
2017-01-20T01:52:03.255Z,28
2017-01-20T01:53:01.646Z,28
2017-01-20T01:54:03.309Z,28
2017-01-20T01:55:01.764Z,28
2017-01-20T01:56:03.398Z,28
2017-01-20T01:57:02.767Z,28
2017-01-20T01:58:01.876Z,28
2017-01-20T01:59:01.990Z,28
2017-01-20T02:00:02.028Z,27.9
2017-01-20T02:01:03.651Z,28
2017-01-20T02:02:03.986Z,28
2017-01-20T02:03:02.156Z,28
2017-01-20T02:04:02.310Z,28
2017-01-20T02:05:03.981Z,28
2017-01-20T02:06:03.577Z,27.9
2017-01-20T02:07:03.952Z,28
2017-01-20T02:08:03.952Z,28
2017-01-20T02:09:04.533Z,28
2017-01-20T02:10:02.520Z,28
2017-01-20T02:11:07.374Z,27.9
2017-01-20T02:12:04.248Z,28
2017-01-20T02:13:04.224Z,27.9
2017-01-20T02:14:02.927Z,27.9
2017-01-20T02:15:04.426Z,27.9
2017-01-20T02:16:04.536Z,27.9
2017-01-20T02:17:04.542Z,28
2017-01-20T02:18:04.451Z,28
2017-01-20T02:19:02.904Z,28
2017-01-20T02:20:02.937Z,28
2017-01-20T02:21:03.023Z,28
2017-01-20T02:22:04.672Z,28
2017-01-20T02:23:03.140Z,27.9
2017-01-20T02:24:04.848Z,28
2017-01-20T02:25:04.816Z,27.9
2017-01-20T02:26:04.946Z,28
2017-01-20T02:27:05.156Z,28
2017-01-20T02:28:05.201Z,28
2017-01-20T02:29:05.202Z,27.9
2017-01-20T02:30:04.325Z,27.9
2017-01-20T02:31:05.232Z,27.9
2017-01-20T02:32:05.340Z,27.9
2017-01-20T02:33:06.603Z,27.9
2017-01-20T02:34:03.847Z,27.9
2017-01-20T02:35:04.577Z,27.9
2017-01-20T02:36:05.500Z,27.9
2017-01-20T02:37:04.069Z,27.9
2017-01-20T02:38:05.604Z,27.9
2017-01-20T02:39:05.817Z,27.9
2017-01-20T02:40:05.910Z,27.9
2017-01-20T02:41:04.299Z,27.9
2017-01-20T02:42:05.902Z,27.9
2017-01-20T02:43:06.236Z,27.9
2017-01-20T02:44:06.198Z,27.9
2017-01-20T02:45:04.557Z,27.9
2017-01-20T02:46:07.274Z,27.9
2017-01-20T02:47:06.201Z,27.9
2017-01-20T02:48:06.398Z,27.9
2017-01-20T02:49:04.924Z,27.9
2017-01-20T02:50:04.833Z,27.9
2017-01-20T02:51:05.102Z,27.9
2017-01-20T02:52:06.521Z,27.9
2017-01-20T02:53:06.534Z,27.9
2017-01-20T02:54:05.024Z,27.9
2017-01-20T02:55:06.667Z,27.9
2017-01-20T02:56:05.170Z,27.9
2017-01-20T02:57:06.849Z,27.9
2017-01-20T02:58:05.312Z,27.9
2017-01-20T02:59:05.376Z,27.9
2017-01-20T03:00:07.646Z,27.9
2017-01-20T03:01:05.466Z,27.9
2017-01-20T03:02:07.632Z,27.9
2017-01-20T03:03:05.680Z,27.9
2017-01-20T03:04:05.696Z,27.9
2017-01-20T03:05:07.250Z,27.9
2017-01-20T03:06:05.771Z,27.9
2017-01-20T03:07:07.355Z,27.9
2017-01-20T03:08:07.526Z,27.9
2017-01-20T03:09:06.000Z,27.9
2017-01-20T03:10:07.775Z,27.9
2017-01-20T03:11:06.525Z,27.9
2017-01-20T03:12:07.654Z,27.9
2017-01-20T03:13:07.609Z,27.9
2017-01-20T03:14:07.682Z,27.9
2017-01-20T03:15:06.241Z,27.9
2017-01-20T03:16:06.281Z,27.9
2017-01-20T03:17:07.086Z,27.9
2017-01-20T03:18:06.436Z,27.9
2017-01-20T03:19:08.033Z,27.9
2017-01-20T03:20:07.313Z,27.9
2017-01-20T03:21:08.145Z,27.9
2017-01-20T03:22:06.801Z,27.9
2017-01-20T03:23:07.286Z,27.9
2017-01-20T03:24:06.875Z,27.8
2017-01-20T03:25:06.784Z,27.9
2017-01-20T03:26:08.511Z,27.9
2017-01-20T03:27:07.045Z,27.9
2017-01-20T03:28:07.087Z,27.9
2017-01-20T03:29:07.077Z,27.9
2017-01-20T03:30:07.008Z,27.9
2017-01-20T03:31:07.225Z,27.9
2017-01-20T03:32:08.933Z,27.9
2017-01-20T03:33:09.046Z,27.9
2017-01-20T03:34:09.069Z,27.8
2017-01-20T03:35:07.430Z,27.9
2017-01-20T03:36:09.080Z,27.9
2017-01-20T03:37:07.584Z,27.9
2017-01-20T03:38:09.285Z,27.9
2017-01-20T03:39:09.211Z,27.9
2017-01-20T03:40:09.378Z,27.8
2017-01-20T03:41:09.252Z,27.9
2017-01-20T03:42:09.371Z,27.9
2017-01-20T03:43:07.834Z,27.9
2017-01-20T03:44:07.927Z,27.9
2017-01-20T03:45:07.919Z,27.9
2017-01-20T03:46:08.038Z,27.9
2017-01-20T03:47:09.726Z,27.9
2017-01-20T03:48:08.175Z,27.8
2017-01-20T03:49:09.759Z,27.8
2017-01-20T04:32:31.198Z,27.5
2017-01-20T04:33:29.571Z,27.5
2017-01-20T04:34:31.312Z,27.6
2017-01-20T04:35:31.327Z,27.6
2017-01-20T04:36:31.303Z,27.6
2017-01-20T04:37:31.937Z,27.6
2017-01-20T04:38:31.504Z,27.6
2017-01-20T04:39:31.481Z,27.7
2017-01-20T04:40:30.617Z,27.7
2017-01-20T04:41:31.485Z,27.7
2017-01-20T04:42:30.013Z,27.7
2017-01-20T04:43:32.288Z,27.7
2017-01-20T04:44:30.101Z,27.7
2017-01-20T04:45:31.809Z,27.7
2017-01-20T04:46:31.026Z,27.7
2017-01-20T04:47:31.811Z,27.8
2017-01-20T04:48:31.782Z,27.8
2017-01-20T04:49:31.849Z,27.8
2017-01-20T04:50:32.535Z,27.8
2017-01-20T04:51:31.884Z,27.8
2017-01-20T04:52:31.344Z,27.8
2017-01-20T04:53:30.458Z,27.8
2017-01-20T04:54:32.126Z,27.8
2017-01-20T04:55:31.005Z,27.8
2017-01-20T04:56:32.444Z,27.8
2017-01-20T04:57:32.607Z,27.8
2017-01-20T04:58:31.113Z,27.9
2017-01-20T04:59:32.788Z,27.9
2017-01-20T05:00:32.796Z,27.9
2017-01-20T05:01:32.836Z,27.9
2017-01-20T05:02:31.220Z,27.9
2017-01-20T05:03:33.064Z,27.9
2017-01-20T05:04:31.305Z,27.9
2017-01-20T05:05:31.691Z,27.9
2017-01-20T05:06:33.319Z,27.9
2017-01-20T05:07:31.507Z,28
2017-01-20T05:08:33.384Z,28
2017-01-20T05:09:31.624Z,28
2017-01-20T05:10:31.650Z,28
2017-01-20T05:11:31.916Z,28
2017-01-20T05:12:33.444Z,28
2017-01-20T05:13:33.470Z,28
2017-01-20T05:14:31.945Z,28
2017-01-20T05:15:33.479Z,28
2017-01-20T05:16:33.521Z,28
2017-01-20T05:17:31.946Z,27.9
2017-01-20T05:18:33.612Z,28
2017-01-20T05:19:33.582Z,28
2017-01-20T05:20:32.361Z,28
2017-01-20T05:21:32.358Z,28
2017-01-20T05:22:33.867Z,28
2017-01-20T05:23:32.403Z,28
2017-01-20T05:24:34.573Z,27.9
2017-01-20T05:25:34.021Z,27.9
2017-01-20T05:26:34.649Z,27.9
2017-01-20T05:27:33.442Z,28
2017-01-20T05:28:34.714Z,27.9
2017-01-20T05:29:35.775Z,27.9
2017-01-20T05:30:33.269Z,28
2017-01-20T05:31:34.239Z,28
2017-01-20T05:32:33.207Z,28
2017-01-20T05:33:35.500Z,28
2017-01-20T05:34:34.282Z,28
2017-01-20T05:35:32.783Z,28
2017-01-20T05:36:34.337Z,28
2017-01-20T05:37:33.157Z,28
2017-01-20T05:38:34.754Z,27.9
2017-01-20T05:39:33.191Z,28
2017-01-20T05:40:32.820Z,28
2017-01-20T05:41:34.142Z,28
2017-01-20T05:42:32.701Z,27.9
2017-01-20T05:43:32.666Z,28
2017-01-20T05:44:32.863Z,28
2017-01-20T05:45:33.497Z,28
2017-01-20T05:46:35.316Z,27.9
2017-01-20T05:47:34.537Z,28
2017-01-20T05:48:33.826Z,28
2017-01-20T05:49:34.761Z,28
2017-01-20T05:50:35.429Z,28
2017-01-20T05:51:33.417Z,28
2017-01-20T05:52:34.955Z,28.1
2017-01-20T05:53:34.887Z,28.1
2017-01-20T05:54:33.415Z,28.1
2017-01-20T05:55:33.410Z,28.1
2017-01-20T05:56:33.406Z,28.1
2017-01-20T05:57:33.464Z,28.1
2017-01-20T05:58:34.107Z,28.1
2017-01-20T05:59:35.229Z,28.1
2017-01-20T06:00:34.328Z,28.1
2017-01-20T06:01:33.614Z,28.1
2017-01-20T06:02:33.691Z,28.1
2017-01-20T06:03:35.536Z,28.1
2017-01-20T06:04:33.960Z,28.1
2017-01-20T06:05:35.376Z,28.1
2017-01-20T06:06:35.329Z,28.1
2017-01-20T06:07:35.345Z,28.1
2017-01-20T06:08:35.363Z,28.1
2017-01-20T06:09:35.673Z,28.1
2017-01-20T06:10:35.994Z,28.1
2017-01-20T06:11:36.175Z,28.1
2017-01-20T06:12:35.888Z,28.1
2017-01-20T06:13:35.235Z,28.1
2017-01-20T06:14:34.224Z,28.1
2017-01-20T06:15:34.227Z,28.1
2017-01-20T06:16:35.648Z,28.1
2017-01-20T06:17:35.701Z,28.1
2017-01-20T06:18:35.932Z,28.1
2017-01-20T06:19:35.924Z,28.1
2017-01-20T06:20:36.563Z,28.1
2017-01-20T06:21:35.133Z,28.1
2017-01-20T06:22:36.140Z,28.1
2017-01-20T06:23:34.876Z,28.1
2017-01-20T06:24:38.013Z,28.1
2017-01-20T06:25:37.371Z,28.1
2017-01-20T06:26:34.851Z,28.1
2017-01-20T06:27:36.344Z,28.1
2017-01-20T06:28:34.860Z,28.1
2017-01-20T06:29:39.330Z,28.1
2017-01-20T06:30:35.003Z,28.1
2017-01-20T06:31:38.063Z,28.1
2017-01-20T06:32:36.720Z,28.1
2017-01-20T06:33:35.085Z,28.1
2017-01-20T06:34:36.694Z,28.1
2017-01-20T06:35:37.697Z,28.1
2017-01-20T06:36:35.981Z,28.1
2017-01-20T06:37:35.824Z,28.1
2017-01-20T06:38:37.031Z,28.1
2017-01-20T06:39:35.292Z,28.1
2017-01-20T06:40:36.408Z,28.1
2017-01-20T06:41:41.409Z,28.1
2017-01-20T06:42:37.578Z,28.1
2017-01-20T06:43:36.894Z,28.1
2017-01-20T06:44:35.821Z,28.1
2017-01-20T06:45:37.401Z,28.1
2017-01-20T06:46:36.472Z,28.1
2017-01-20T06:47:37.905Z,28.1
2017-01-20T06:48:39.752Z,28.1
2017-01-20T06:49:38.643Z,28.1
2017-01-20T06:50:36.750Z,28.1
2017-01-20T06:51:39.077Z,28.1
2017-01-20T06:52:37.382Z,28.1
2017-01-20T06:53:36.286Z,28.1
2017-01-20T06:54:36.923Z,28.1
2017-01-20T06:55:37.055Z,28.1
2017-01-20T06:56:37.831Z,28.1
2017-01-20T06:57:36.482Z,28.1
2017-01-20T06:58:38.518Z,28.1
2017-01-20T06:59:36.689Z,28.1
2017-01-20T07:00:36.467Z,28.1
2017-01-20T07:01:36.741Z,28.1
2017-01-20T07:02:37.542Z,28.1
2017-01-20T07:03:36.760Z,28.1
2017-01-20T07:04:38.368Z,28.1
2017-01-20T07:05:36.991Z,28.1
2017-01-20T07:06:38.179Z,28.1
2017-01-20T07:07:38.394Z,28.1
2017-01-20T07:08:39.103Z,28.1
2017-01-20T07:09:39.518Z,28.1
2017-01-20T07:10:38.780Z,28.1
2017-01-20T07:11:38.651Z,28
2017-01-20T07:12:39.105Z,28.1
2017-01-20T07:13:37.342Z,28
2017-01-20T07:14:39.422Z,28
2017-01-20T07:15:39.052Z,28
2017-01-20T07:16:37.626Z,28.1
2017-01-20T07:17:39.773Z,28.1
2017-01-20T07:18:37.739Z,28.1
2017-01-20T07:19:37.525Z,28.1
2017-01-20T07:20:39.482Z,28
2017-01-20T07:21:40.256Z,28.1
2017-01-20T07:22:39.350Z,28.1
2017-01-20T07:23:38.103Z,28.1
2017-01-20T07:24:39.905Z,28.1
2017-01-20T07:25:39.904Z,28.1
2017-01-20T07:26:39.645Z,28.1
2017-01-20T07:27:40.201Z,27.7
2017-01-20T07:28:38.156Z,27.2
2017-01-20T07:29:40.811Z,26.8
2017-01-20T07:30:38.300Z,26.4
2017-01-20T07:31:39.806Z,26
2017-01-20T07:32:39.824Z,25.7
2017-01-20T07:33:38.527Z,25.6
2017-01-20T07:34:42.184Z,25.7
2017-01-20T07:35:39.307Z,25.8
2017-01-20T07:36:38.505Z,25.9
2017-01-20T07:37:40.788Z,26.1
2017-01-20T07:38:38.622Z,26.2
2017-01-20T07:39:38.786Z,26.4
2017-01-20T07:40:39.320Z,26.5
2017-01-20T07:41:40.722Z,26.7
2017-01-20T07:42:41.840Z,26.8
2017-01-20T07:43:40.160Z,26.9
2017-01-20T07:44:41.078Z,27
2017-01-20T07:45:41.399Z,27.2
2017-01-20T07:46:40.155Z,27.3
2017-01-20T07:47:39.024Z,27.4
2017-01-20T07:48:39.075Z,27.5
2017-01-20T07:49:39.682Z,27.6
2017-01-20T07:50:40.002Z,27.7
2017-01-20T07:51:40.926Z,27.8
2017-01-20T07:52:42.083Z,27.9
2017-01-20T07:53:41.071Z,28
2017-01-20T07:54:39.665Z,28.1
2017-01-20T07:55:40.119Z,28.2
2017-01-20T07:56:41.090Z,28.3
2017-01-20T07:57:42.967Z,28.3
2017-01-20T07:58:41.009Z,28.4
2017-01-20T07:59:42.185Z,28.5
2017-01-20T08:00:41.050Z,28.6
2017-01-20T08:01:42.048Z,28.6
2017-01-20T08:02:41.110Z,28.7
2017-01-20T08:03:40.269Z,28.8
2017-01-20T08:04:40.985Z,28.8
2017-01-20T08:05:42.257Z,28.9
2017-01-20T08:06:41.929Z,28.9
2017-01-20T08:07:39.863Z,29
2017-01-20T08:08:40.155Z,29
2017-01-20T08:09:42.751Z,29.1
2017-01-20T08:10:41.159Z,29.2
2017-01-20T08:11:42.129Z,29.3
2017-01-20T08:12:43.017Z,29.3
2017-01-20T08:13:40.833Z,29.4
2017-01-20T08:14:42.477Z,29.4
2017-01-20T08:15:41.509Z,29.6
2017-01-20T08:16:40.998Z,29.6
2017-01-20T08:17:40.871Z,29.7
2017-01-20T08:18:41.197Z,29.7
2017-01-20T08:19:40.616Z,29.8
2017-01-20T08:20:44.609Z,29.8
2017-01-20T08:21:40.574Z,29.8
2017-01-20T08:22:41.409Z,29.8
2017-01-20T08:23:41.511Z,29.8
2017-01-20T08:24:40.943Z,29.8
2017-01-20T08:25:42.368Z,29.8
2017-01-20T08:26:41.761Z,29.8
2017-01-20T08:27:43.042Z,29.7
2017-01-20T08:28:45.409Z,29.7
2017-01-20T08:29:41.829Z,29.7
2017-01-20T08:30:45.447Z,29.7
2017-01-20T08:31:45.362Z,29.7
2017-01-20T08:32:41.314Z,29.6
2017-01-20T08:33:41.225Z,29.6
2017-01-20T08:34:42.146Z,29.6
2017-01-20T08:35:41.979Z,29.6
2017-01-20T08:36:41.590Z,29.6
2017-01-20T08:37:43.241Z,29.6
2017-01-20T08:38:43.753Z,29.6
2017-01-20T08:39:42.723Z,29.6
2017-01-20T08:40:44.025Z,29.6
2017-01-20T08:41:44.829Z,29.6
2017-01-20T08:42:43.460Z,29.7
2017-01-20T08:43:41.857Z,29.7
2017-01-20T08:44:47.835Z,29.7
2017-01-20T08:45:42.811Z,29.6
2017-01-20T08:46:42.884Z,29.7
2017-01-20T08:47:42.699Z,29.7
2017-01-20T08:48:45.587Z,29.6
2017-01-20T08:49:42.148Z,29.7
2017-01-20T08:50:42.794Z,29.7
2017-01-20T08:51:43.193Z,29.6
2017-01-20T08:52:43.909Z,29.7
2017-01-20T08:53:42.466Z,29.7
2017-01-20T08:54:45.216Z,29.7
2017-01-20T08:55:44.098Z,29.7
2017-01-20T08:56:43.338Z,29.7
2017-01-20T08:57:43.955Z,29.7
2017-01-20T08:58:43.279Z,29.7
2017-01-20T08:59:42.677Z,29.7
2017-01-20T09:00:44.082Z,29.7
2017-01-20T09:01:46.408Z,29.7
2017-01-20T09:02:43.552Z,29.7
2017-01-20T09:03:44.615Z,29.7
2017-01-20T09:04:44.621Z,29.7
2017-01-20T09:05:43.743Z,29.7
2017-01-20T09:06:44.803Z,29.7
2017-01-20T09:07:43.208Z,29.7
2017-01-20T09:08:44.479Z,29.7
2017-01-20T09:09:45.542Z,29.8
2017-01-20T09:10:45.559Z,29.8
2017-01-20T09:11:43.450Z,29.8
2017-01-20T09:12:44.999Z,29.8
2017-01-20T09:13:45.080Z,29.8
2017-01-20T09:14:45.104Z,29.8
2017-01-20T09:15:45.917Z,29.8
2017-01-20T09:16:44.319Z,29.8
2017-01-20T09:17:45.398Z,29.8
2017-01-20T09:18:43.670Z,29.8
2017-01-20T09:19:45.410Z,29.8
2017-01-20T09:20:45.462Z,29.8
2017-01-20T09:21:44.746Z,29.8
2017-01-20T09:22:45.420Z,29.9
2017-01-20T09:23:45.463Z,29.9
2017-01-20T09:24:45.605Z,29.9
2017-01-20T09:25:43.904Z,29.9
2017-01-20T09:26:44.029Z,29.9
2017-01-20T09:27:46.251Z,29.9
2017-01-20T09:28:46.192Z,30
2017-01-20T09:29:44.254Z,30
2017-01-20T09:30:45.876Z,30
2017-01-20T09:31:46.491Z,30
2017-01-20T09:32:47.269Z,30.1
2017-01-20T09:33:45.330Z,30.1
2017-01-20T09:34:46.800Z,30.1
2017-01-20T09:35:50.645Z,30.2
2017-01-20T09:36:45.099Z,30.2
2017-01-20T09:37:46.099Z,30.2
2017-01-20T09:38:45.458Z,30.2
2017-01-20T09:39:44.675Z,30.2
2017-01-20T09:40:46.122Z,30.3
2017-01-20T09:41:48.300Z,30.3
2017-01-20T09:42:44.788Z,30.3
2017-01-20T09:43:46.080Z,30.3
2017-01-20T09:44:46.490Z,30.3
2017-01-20T09:45:45.488Z,30.3
2017-01-20T09:46:47.180Z,30.3
2017-01-20T09:47:49.484Z,30.4
2017-01-20T09:48:47.647Z,30.4
2017-01-20T09:49:47.429Z,30.4
2017-01-20T09:50:46.863Z,30.4
2017-01-20T09:51:45.136Z,30.4
2017-01-20T09:52:47.580Z,30.4
2017-01-20T09:53:45.216Z,30.4
2017-01-20T09:54:46.751Z,30.5
2017-01-20T09:55:45.709Z,30.5
2017-01-20T09:56:50.147Z,30.5
2017-01-20T09:57:50.134Z,30.6
2017-01-20T09:58:52.044Z,30.6
2017-01-20T09:59:51.924Z,30.6
2017-01-20T10:00:51.263Z,30.6
2017-01-20T10:01:54.736Z,30.6
2017-01-20T10:02:48.405Z,30.6
2017-01-20T10:03:52.760Z,30.6
2017-01-20T10:04:47.025Z,30.7
2017-01-20T10:05:46.775Z,30.7
2017-01-20T10:06:47.285Z,30.7
2017-01-20T10:07:48.138Z,30.7
2017-01-20T10:08:49.550Z,30.7
2017-01-20T10:09:48.993Z,30.8
2017-01-20T10:10:49.071Z,30.8
2017-01-20T10:11:47.706Z,30.8
2017-01-20T10:12:46.903Z,30.8
2017-01-20T10:13:46.875Z,30.8
2017-01-20T10:14:50.290Z,30.8
2017-01-20T10:15:51.136Z,30.8
2017-01-20T10:16:52.694Z,30.8
2017-01-20T10:17:49.313Z,30.9
2017-01-20T10:18:48.608Z,30.9
2017-01-20T10:19:50.038Z,30.9
2017-01-20T10:20:50.603Z,30.9
2017-01-20T10:21:48.197Z,30.9
2017-01-20T10:22:50.828Z,30.9
2017-01-20T10:23:46.600Z,30.9
2017-01-20T10:24:48.165Z,31
2017-01-20T10:25:52.512Z,31
2017-01-20T10:26:48.401Z,31
2017-01-20T10:27:48.727Z,31
2017-01-20T10:28:53.990Z,31.1
2017-01-20T10:29:52.490Z,31.1
2017-01-20T10:30:54.982Z,31.1
2017-01-20T10:31:48.336Z,31.1
2017-01-20T10:32:51.150Z,31.1
2017-01-20T10:33:48.854Z,31.1
2017-01-20T10:34:50.022Z,31.1
2017-01-20T10:35:51.262Z,31.1
2017-01-20T10:36:49.717Z,31.1
2017-01-20T10:37:50.134Z,31.1
2017-01-20T10:38:51.825Z,31.1
2017-01-20T10:39:50.071Z,31.2
2017-01-20T10:40:49.956Z,31.1
2017-01-20T10:41:49.806Z,31.2
2017-01-20T10:42:55.009Z,31.2
2017-01-20T10:43:48.071Z,31.2
2017-01-20T10:44:53.303Z,31.2
2017-01-20T10:45:55.723Z,31.3
2017-01-20T10:46:52.021Z,31.3
2017-01-20T10:47:53.762Z,31.3
2017-01-20T10:48:49.210Z,31.3
2017-01-20T10:49:54.725Z,31.3
2017-01-20T10:50:58.625Z,31.2
2017-01-20T10:51:53.662Z,31.3
2017-01-20T10:52:50.830Z,31.3
2017-01-20T10:53:52.265Z,31.3
2017-01-20T10:54:51.877Z,31.3
2017-01-20T10:55:52.361Z,31.3
2017-01-20T10:56:59.534Z,31.3
2017-01-20T10:57:55.368Z,31.3
2017-01-20T10:58:51.327Z,31.3
2017-01-20T10:59:53.036Z,31.3
2017-01-20T11:01:01.551Z,31.3
2017-01-20T11:01:56.699Z,31.3
2017-01-20T11:02:58.869Z,31.3
2017-01-20T11:03:53.800Z,31.3
2017-01-20T11:04:50.587Z,31.4
2017-01-20T11:05:53.729Z,31.4
2017-01-20T11:06:50.422Z,31.4
2017-01-20T11:07:49.634Z,31.4
2017-01-20T11:08:48.954Z,31.4
2017-01-20T11:09:53.406Z,31.4
2017-01-20T11:10:54.936Z,31.5
2017-01-20T11:11:53.662Z,31.5
2017-01-20T11:12:53.018Z,31.5
2017-01-20T11:14:00.108Z,31.5
2017-01-20T11:14:58.888Z,31.5
2017-01-20T11:16:00.615Z,31.5
2017-01-20T11:16:55.861Z,31.5
2017-01-20T11:18:03.171Z,31.6
2017-01-20T11:19:02.678Z,31.6
2017-01-20T11:20:01.744Z,31.6
2017-01-20T11:20:51.091Z,31.7
2017-01-20T11:21:53.160Z,31.7
2017-01-20T11:22:53.186Z,31.7
2017-01-20T11:23:51.958Z,31.8
2017-01-20T11:24:51.918Z,31.8
2017-01-20T11:25:49.829Z,31.9
2017-01-20T11:26:50.956Z,31.9
2017-01-20T11:27:56.726Z,31.9
2017-01-20T11:28:52.123Z,31.9
2017-01-20T11:29:52.041Z,32
2017-01-20T11:30:55.893Z,32
2017-01-20T11:31:56.614Z,32
2017-01-20T11:32:54.609Z,32
2017-01-20T11:33:54.922Z,32
2017-01-20T11:34:53.486Z,32
2017-01-20T11:35:54.027Z,32
2017-01-20T11:36:57.071Z,32
2017-01-20T11:37:53.131Z,32
2017-01-20T11:38:50.645Z,32
2017-01-20T11:39:52.511Z,32
2017-01-20T11:40:53.204Z,32.1
2017-01-20T11:41:54.866Z,32
2017-01-20T11:42:53.329Z,32.1
2017-01-20T11:43:54.363Z,32.1
2017-01-20T11:44:54.451Z,32.1
2017-01-20T11:46:01.884Z,32
2017-01-20T11:46:56.629Z,32.1
2017-01-20T11:47:54.207Z,32.1
2017-01-20T11:48:55.003Z,32.1
2017-01-20T11:50:00.421Z,32
2017-01-20T11:50:55.558Z,31.9
2017-01-20T11:51:55.858Z,31.6
2017-01-20T11:52:57.784Z,31.4
2017-01-20T11:53:55.318Z,31.1
2017-01-20T11:54:56.290Z,30.9
2017-01-20T11:55:53.380Z,30.8
2017-01-20T11:56:57.293Z,30.6
2017-01-20T11:57:55.341Z,30.4
2017-01-20T11:58:55.092Z,30.2
2017-01-20T11:59:54.220Z,30.1
2017-01-20T12:00:54.857Z,29.9
2017-01-20T12:01:52.926Z,29.8
2017-01-20T12:02:53.439Z,29.7
2017-01-20T12:03:55.104Z,29.5
2017-01-20T12:05:00.260Z,29.4
2017-01-20T12:05:59.601Z,29.3
2017-01-20T12:06:59.660Z,29.2
2017-01-20T12:07:56.259Z,29.1
2017-01-20T12:08:57.200Z,29
2017-01-20T12:09:54.648Z,29
2017-01-20T12:10:53.513Z,29
2017-01-20T12:11:52.748Z,29
2017-01-20T12:12:54.658Z,29
2017-01-20T12:13:55.006Z,28.9
2017-01-20T12:14:56.183Z,28.8
2017-01-20T12:15:53.785Z,28.7
2017-01-20T12:16:54.705Z,28.5
2017-01-20T12:17:54.952Z,28.4
2017-01-20T12:18:54.846Z,28.2
2017-01-20T12:19:53.273Z,28.1
2017-01-20T12:20:55.978Z,27.9
2017-01-20T12:21:54.249Z,27.7
2017-01-20T12:22:53.608Z,27.5
2017-01-20T12:23:54.645Z,27.4
2017-01-20T12:24:52.405Z,27.3
2017-01-20T12:25:54.143Z,27.2
2017-01-20T12:26:54.238Z,27.1
2017-01-20T12:27:54.818Z,27
2017-01-20T12:28:53.624Z,26.9
2017-01-20T12:29:54.376Z,26.9
2017-01-20T12:30:55.042Z,26.8
2017-01-20T12:31:52.804Z,26.8
2017-01-20T12:32:54.355Z,26.7
2017-01-20T12:33:56.304Z,26.6
2017-01-20T12:34:52.749Z,26.7
2017-01-20T12:35:54.344Z,26.6
2017-01-20T12:36:52.887Z,26.6
2017-01-20T12:37:55.218Z,26.6
2017-01-20T12:38:55.746Z,26.6
2017-01-20T12:39:53.255Z,26.6
2017-01-20T12:40:53.269Z,26.5
2017-01-20T12:41:55.354Z,26.5
2017-01-20T12:42:55.532Z,26.4
2017-01-20T12:43:55.105Z,26.5
2017-01-20T12:44:54.820Z,26.5
2017-01-20T12:45:53.253Z,26.5
2017-01-20T12:46:54.806Z,26.5
2017-01-20T12:47:54.002Z,26.5
2017-01-20T12:48:53.458Z,26.5
2017-01-20T12:49:54.297Z,26.5
2017-01-20T12:50:54.590Z,26.5
2017-01-20T12:51:54.705Z,26.5
2017-01-20T12:52:53.895Z,26.5
2017-01-20T12:53:59.414Z,26.5
2017-01-20T12:54:57.428Z,26.5
2017-01-20T12:55:53.701Z,26.5
2017-01-20T12:56:54.392Z,26.5
2017-01-20T12:57:57.358Z,26.5
2017-01-20T12:58:54.753Z,26.5
2017-01-20T12:59:56.420Z,26.5
2017-01-20T13:00:54.258Z,26.5
2017-01-20T13:01:54.170Z,26.5
2017-01-20T13:02:56.539Z,26.5
2017-01-20T13:03:56.027Z,26.5
2017-01-20T13:04:57.913Z,26.6
2017-01-20T13:05:56.036Z,26.6
2017-01-20T13:06:56.148Z,26.6
2017-01-20T13:07:56.161Z,26.6
2017-01-20T13:08:56.823Z,26.6
2017-01-20T13:09:57.227Z,26.6
2017-01-20T13:10:55.833Z,26.6
2017-01-20T13:12:03.972Z,26.6
2017-01-20T13:12:59.960Z,26.6
2017-01-20T13:14:00.614Z,26.5
2017-01-20T13:14:58.183Z,26.5
2017-01-20T13:15:55.098Z,26.5
2017-01-20T13:16:58.614Z,26.5
2017-01-20T13:17:55.184Z,26.5
2017-01-20T13:18:59.145Z,26.6
2017-01-20T13:20:01.877Z,26.6
2017-01-20T13:21:00.348Z,26.6
2017-01-20T13:22:01.676Z,26.6
2017-01-20T13:23:02.821Z,26.6
2017-01-20T13:24:03.126Z,26.6
2017-01-20T13:25:01.984Z,26.6
2017-01-20T13:25:57.860Z,26.5
2017-01-20T13:27:03.189Z,26.5
2017-01-20T13:27:58.787Z,26.5
2017-01-20T13:28:58.321Z,26.5
2017-01-20T13:30:02.821Z,26.5
2017-01-20T13:30:58.891Z,26.5
2017-01-20T13:32:00.144Z,26.5
2017-01-20T13:33:02.517Z,26.5
2017-01-20T13:34:03.543Z,26.4
2017-01-20T13:35:01.075Z,26.4
2017-01-20T13:36:02.304Z,26.4
2017-01-20T13:36:59.568Z,26.4
2017-01-20T13:37:58.606Z,26.4
2017-01-20T13:39:00.612Z,26.4
2017-01-20T13:39:58.966Z,26.4
2017-01-20T13:40:57.667Z,26.3
2017-01-20T13:41:59.045Z,26.3
2017-01-20T13:43:01.209Z,26.3
2017-01-20T13:44:06.762Z,26.3
2017-01-20T13:45:03.718Z,26.2
2017-01-20T13:46:02.162Z,26.2
2017-01-20T13:46:57.778Z,26.2
2017-01-20T13:47:59.391Z,26.2
2017-01-20T13:49:03.275Z,26.1
2017-01-20T13:49:57.165Z,26.1
2017-01-20T13:51:01.738Z,26.1
2017-01-20T13:51:58.150Z,26.1
2017-01-20T13:53:00.127Z,26.1
2017-01-20T13:53:58.622Z,26.1
2017-01-20T13:54:59.803Z,26.1
2017-01-20T13:55:56.841Z,26.1
2017-01-20T13:57:03.633Z,26.3
2017-01-20T13:58:04.212Z,26.4
2017-01-20T13:59:00.674Z,26.5
2017-01-20T14:00:00.643Z,26.6
2017-01-20T14:01:00.963Z,26.7
2017-01-20T14:01:57.711Z,26.8
2017-01-20T14:02:58.411Z,26.9
2017-01-20T14:03:59.907Z,26.9
2017-01-20T14:04:59.457Z,27
2017-01-20T14:05:57.690Z,27.1
2017-01-20T14:06:59.235Z,27.1
2017-01-20T14:07:57.929Z,27.2
2017-01-20T14:08:57.834Z,27.3
2017-01-20T14:09:59.434Z,27.3
2017-01-20T14:11:00.153Z,27.4
2017-01-20T14:12:01.421Z,27.4